createdAt,value
2022-08-22T00:01:28.825Z,37.40
2022-08-22T00:02:49.417Z,37.50
2022-08-22T00:03:00.779Z,37.40
2022-08-22T00:06:37.544Z,37.40
2022-08-22T00:11:44.055Z,37.40
2022-08-22T00:16:50.513Z,37.40
2022-08-22T00:22:01.364Z,37.40
2022-08-22T00:27:07.177Z,37.70
2022-08-22T00:32:12.916Z,37.40
2022-08-22T00:37:19.252Z,37.40
2022-08-22T00:42:40.363Z,37.40
2022-08-22T00:47:50.135Z,37.40
2022-08-22T00:53:07.821Z,37.30
2022-08-22T00:58:31.324Z,37.30
2022-08-22T01:04:01.615Z,37.20
2022-08-22T01:09:08.420Z,37.20
2022-08-22T01:14:17.291Z,37.20
2022-08-22T01:19:38.492Z,37.30
2022-08-22T01:25:25.901Z,37.20
2022-08-22T01:30:39.172Z,37.30
2022-08-22T01:35:52.531Z,37.20
2022-08-22T01:41:02.289Z,37.20
2022-08-22T01:46:21.422Z,37.30
2022-08-22T01:51:28.725Z,37.20
2022-08-22T01:56:34.192Z,37.30
2022-08-22T02:01:52.727Z,37.20
2022-08-22T02:07:01.939Z,37.30
2022-08-22T02:12:21.627Z,37.20
2022-08-22T02:17:27.040Z,37.30
2022-08-22T02:22:36.360Z,37.30
2022-08-22T02:27:52.296Z,37.30
2022-08-22T02:33:04.640Z,37.30
2022-08-22T02:38:22.381Z,37.30
2022-08-22T02:43:27.353Z,37.30
2022-08-22T02:48:35.606Z,37.30
2022-08-22T02:53:45.604Z,37.20
2022-08-22T02:58:51.515Z,37.20
2022-08-22T03:04:14.764Z,37.20
2022-08-22T03:09:25.894Z,37.10
2022-08-22T03:14:31.545Z,37.20
2022-08-22T03:19:47.027Z,37.20
2022-08-22T03:24:55.499Z,37.10
2022-08-22T03:30:01.496Z,37.10
2022-08-22T03:35:06.196Z,37.20
2022-08-22T03:40:23.461Z,37.10
2022-08-22T03:45:50.232Z,37.10
2022-08-22T03:51:00.977Z,37.00
2022-08-22T03:56:30.890Z,37.00
2022-08-22T04:01:55.140Z,37.10
2022-08-22T04:07:11.142Z,37.00
2022-08-22T04:12:48.343Z,37.00
2022-08-22T04:18:03.344Z,36.90
2022-08-22T04:23:13.999Z,37.00
2022-08-22T04:28:19.903Z,36.90
2022-08-22T04:33:27.249Z,36.90
2022-08-22T04:38:31.976Z,36.90
2022-08-22T04:43:36.975Z,36.80
2022-08-22T04:48:43.308Z,36.90
2022-08-22T04:54:00.982Z,36.90
2022-08-22T04:59:05.521Z,36.80
2022-08-22T05:04:11.087Z,36.80
2022-08-22T05:09:16.576Z,36.80
2022-08-22T05:14:24.033Z,36.80
2022-08-22T05:19:32.251Z,36.90
2022-08-22T05:24:38.080Z,37.30
2022-08-22T05:29:42.062Z,36.80
2022-08-22T05:34:48.464Z,36.80
2022-08-22T05:39:55.872Z,36.70
2022-08-22T05:44:58.920Z,36.80
2022-08-22T05:50:04.892Z,36.80
2022-08-22T05:55:14.048Z,36.80
2022-08-22T06:00:21.568Z,36.80
2022-08-22T06:05:28.131Z,36.80
2022-08-22T06:10:33.073Z,36.90
2022-08-22T06:15:44.081Z,37.00
2022-08-22T06:20:54.915Z,37.10
2022-08-22T06:26:00.480Z,37.20
2022-08-22T06:31:04.223Z,37.60
2022-08-22T06:36:29.890Z,37.60
2022-08-22T06:41:34.645Z,37.80
2022-08-22T06:46:38.967Z,37.80
2022-08-22T06:51:44.060Z,37.80
2022-08-22T06:56:47.873Z,37.70
2022-08-22T07:01:52.920Z,37.80
2022-08-22T07:06:58.206Z,37.80
2022-08-22T07:12:02.788Z,37.70
2022-08-22T07:17:08.258Z,37.70
2022-08-22T07:22:14.382Z,37.80
2022-08-22T07:27:23.221Z,37.80
2022-08-22T07:32:30.056Z,37.80
2022-08-22T07:37:40.748Z,37.70
2022-08-22T07:42:44.957Z,37.70
2022-08-22T07:47:57.957Z,37.70
2022-08-22T07:53:10.533Z,37.60
2022-08-22T07:58:15.400Z,37.50
2022-08-22T08:03:18.774Z,37.50
2022-08-22T08:08:25.832Z,37.40
2022-08-22T08:13:30.643Z,37.30
2022-08-22T08:18:34.577Z,37.20
2022-08-22T08:23:41.929Z,37.20
2022-08-22T08:28:48.916Z,37.00
2022-08-22T08:33:54.451Z,37.00
2022-08-22T08:39:02.900Z,36.90
2022-08-22T08:44:08.309Z,36.90
2022-08-22T08:49:21.015Z,36.70
2022-08-22T08:54:43.341Z,36.60
2022-08-22T08:59:49.540Z,36.50
2022-08-22T09:05:16.008Z,36.50
2022-08-22T09:10:29.706Z,36.40
2022-08-22T09:15:38.991Z,36.30
2022-08-22T09:20:47.668Z,36.20
2022-08-22T09:25:55.812Z,36.20
2022-08-22T09:31:16.988Z,36.20
2022-08-22T09:36:32.724Z,36.60
2022-08-22T09:41:40.804Z,36.00
2022-08-22T09:46:50.847Z,36.00
2022-08-22T09:51:59.355Z,36.00
2022-08-22T09:57:15.786Z,35.80
2022-08-22T10:02:24.977Z,35.80
2022-08-22T10:07:45.803Z,35.60
2022-08-22T10:13:01.146Z,35.50
2022-08-22T10:18:10.615Z,35.40
2022-08-22T10:23:15.862Z,35.40
2022-08-22T10:28:28.668Z,35.20
2022-08-22T10:33:34.376Z,35.10
2022-08-22T10:38:44.049Z,35.10
2022-08-22T10:43:52.739Z,35.00
2022-08-22T10:49:08.173Z,34.80
2022-08-22T10:54:33.684Z,34.60
2022-08-22T10:59:43.724Z,34.60
2022-08-22T11:04:56.514Z,34.60
2022-08-22T11:10:02.916Z,34.60
2022-08-22T11:15:11.884Z,34.50
2022-08-22T11:20:19.436Z,34.40
2022-08-22T11:25:35.823Z,34.30
2022-08-22T11:30:45.318Z,34.30
2022-08-22T11:35:52.999Z,34.20
2022-08-22T11:41:00.780Z,34.10
2022-08-22T11:46:19.805Z,34.00
2022-08-22T11:51:29.551Z,34.00
2022-08-22T11:56:41.550Z,33.90
2022-08-22T12:01:49.595Z,34.00
2022-08-22T12:06:58.310Z,34.00
2022-08-22T12:12:13.292Z,33.90
2022-08-22T12:17:50.938Z,34.20
2022-08-22T12:23:08.939Z,34.00
2022-08-22T12:28:15.867Z,34.00
2022-08-22T12:33:45.215Z,34.00
2022-08-22T12:39:12.104Z,34.10
2022-08-22T12:44:29.129Z,34.00
2022-08-22T12:49:42.352Z,34.10
2022-08-22T12:55:10.104Z,34.10
2022-08-22T13:00:23.051Z,34.10
2022-08-22T13:05:34.209Z,34.10
2022-08-22T13:10:41.795Z,34.00
2022-08-22T13:15:46.803Z,34.00
2022-08-22T13:20:59.329Z,34.00
2022-08-22T13:26:07.655Z,34.00
2022-08-22T13:31:19.636Z,34.00
2022-08-22T13:36:24.634Z,34.20
2022-08-22T13:41:31.381Z,34.00
2022-08-22T13:46:35.465Z,34.10
2022-08-22T13:51:41.673Z,34.20
2022-08-22T13:56:50.650Z,34.10
2022-08-22T14:01:57.737Z,34.10
2022-08-22T14:07:17.831Z,34.20
2022-08-22T14:12:28.134Z,34.20
2022-08-22T14:17:42.699Z,34.20
2022-08-22T14:22:55.629Z,34.20
2022-08-22T14:28:06.135Z,34.20
2022-08-22T14:33:13.805Z,34.20
2022-08-22T14:38:27.146Z,34.20
2022-08-22T14:43:49.299Z,34.20
2022-08-22T14:49:07.632Z,34.30
2022-08-22T14:54:21.307Z,34.30
2022-08-22T14:59:28.880Z,34.30
2022-08-22T15:04:36.171Z,34.30
2022-08-22T15:09:42.945Z,34.30
2022-08-22T15:14:51.950Z,34.20
2022-08-22T15:20:06.323Z,34.40
2022-08-22T15:25:16.640Z,34.30
2022-08-22T15:30:31.663Z,34.40
2022-08-22T15:35:39.052Z,34.40
2022-08-22T15:40:45.744Z,34.20
2022-08-22T15:45:49.752Z,34.20
2022-08-22T15:50:58.341Z,34.20
2022-08-22T15:56:16.047Z,34.20
2022-08-22T16:01:23.258Z,34.10
2022-08-22T16:06:44.480Z,34.10
2022-08-22T16:11:54.052Z,34.20
2022-08-22T16:17:03.458Z,34.20
2022-08-22T16:22:13.475Z,34.20
2022-08-22T16:27:20.124Z,34.30
2022-08-22T16:32:28.058Z,34.20
2022-08-22T16:37:36.300Z,34.20
2022-08-22T16:42:40.156Z,34.10
2022-08-22T16:47:52.682Z,34.10
2022-08-22T16:53:01.596Z,34.10
2022-08-22T16:58:08.381Z,34.10
2022-08-22T17:03:16.248Z,34.20
2022-08-22T17:08:43.469Z,34.20
2022-08-22T17:13:54.787Z,34.20
2022-08-22T17:19:06.076Z,34.30
2022-08-22T17:24:32.315Z,34.30
2022-08-22T17:29:44.236Z,34.40
2022-08-22T17:34:55.652Z,34.60
2022-08-22T17:40:05.205Z,34.60
2022-08-22T17:45:11.990Z,34.60
2022-08-22T17:50:21.443Z,34.70
2022-08-22T17:55:26.832Z,34.70
2022-08-22T18:00:31.232Z,34.80
2022-08-22T18:05:37.669Z,34.80
2022-08-22T18:10:47.292Z,34.80
2022-08-22T18:15:52.472Z,34.90
2022-08-22T18:21:00.035Z,34.90
2022-08-22T18:26:06.693Z,34.90
2022-08-22T18:31:10.327Z,35.10
2022-08-22T18:36:15.706Z,35.60
2022-08-22T18:41:24.129Z,35.80
2022-08-22T18:46:34.369Z,35.90
2022-08-22T18:51:38.925Z,36.00
2022-08-22T18:56:49.706Z,36.00
2022-08-22T19:01:56.696Z,36.00
2022-08-22T19:07:05.608Z,36.20
2022-08-22T19:12:15.652Z,36.20
2022-08-22T19:17:35.251Z,36.10
2022-08-22T19:22:39.788Z,36.00
2022-08-22T19:27:44.604Z,36.00
2022-08-22T19:32:59.987Z,35.80
2022-08-22T19:38:04.852Z,35.70
2022-08-22T19:43:19.835Z,35.70
2022-08-22T19:48:25.810Z,35.50
2022-08-22T19:53:37.591Z,35.40
2022-08-22T19:58:50.378Z,35.30
2022-08-22T20:03:55.323Z,35.20
2022-08-22T20:09:03.972Z,35.20
2022-08-22T20:14:28.485Z,35.20
2022-08-22T20:19:37.364Z,35.00
2022-08-22T20:24:46.481Z,34.90
2022-08-22T20:29:52.209Z,34.80
2022-08-22T20:34:56.981Z,34.80
2022-08-22T20:40:09.638Z,34.70
2022-08-22T20:45:32.932Z,34.60
2022-08-22T20:50:35.871Z,34.50
2022-08-22T20:55:40.187Z,34.50
2022-08-22T21:00:45.443Z,34.50
2022-08-22T21:05:48.388Z,34.40
2022-08-22T21:11:16.017Z,34.40
2022-08-22T21:16:20.197Z,34.30
2022-08-22T21:21:25.503Z,34.30
2022-08-22T21:26:30.878Z,34.30
2022-08-22T21:31:35.416Z,34.20
2022-08-22T21:36:38.874Z,34.10
2022-08-22T21:41:48.344Z,34.10
2022-08-22T21:46:52.536Z,34.10
2022-08-22T21:51:55.536Z,34.10
2022-08-22T21:57:00.649Z,34.10
2022-08-22T22:02:18.405Z,34.00
2022-08-22T22:07:23.286Z,34.00
2022-08-22T22:12:27.628Z,34.00
2022-08-22T22:17:30.489Z,34.00
2022-08-22T22:22:33.387Z,34.00
2022-08-22T22:27:41.268Z,34.00
2022-08-22T22:32:44.149Z,34.00
2022-08-22T22:37:49.957Z,34.00
2022-08-22T22:42:54.244Z,34.00
2022-08-22T22:47:57.204Z,34.00
2022-08-22T22:53:00.144Z,34.00
2022-08-22T22:58:04.400Z,34.10
2022-08-22T23:03:07.567Z,34.00
2022-08-22T23:08:10.496Z,34.00
2022-08-22T23:13:14.882Z,34.00
2022-08-22T23:18:17.889Z,34.00
2022-08-22T23:23:23.953Z,34.10
2022-08-22T23:28:28.257Z,34.10
2022-08-22T23:33:32.848Z,34.10
2022-08-22T23:38:37.497Z,34.00
2022-08-22T23:43:43.660Z,34.00
2022-08-22T23:48:47.141Z,34.00
2022-08-22T23:53:50.101Z,34.10
2022-08-22T23:58:54.723Z,34.00
